METAR Data
IDs: Format: Raw Decoded Include TAF

Data at: 1453 UTC 25 Jan 2020

METAR for:KHEF (Manassas Rgnl, VA, US)
Text:KHEF 251356Z 00000KT 10SM OVC010 08/07 A2989 RMK AO2 SLP126 T00780067
Temperature: 7.8°C ( 46°F)
Dewpoint: 6.7°C ( 44°F) [RH = 93%]
Pressure (altimeter):29.89 inches Hg (1012.3 mb) [Sea level pressure: 1012.6 mb]
Winds:calm
Visibility:10 or more sm (16+ km)
Ceiling:1000 feet AGL
Clouds: overcast cloud deck at 1000 feet AGL